createdAt,value
2019-03-22T00:00:09.778Z,3.62
2019-03-22T00:01:15.974Z,3.58
2019-03-22T00:02:21.394Z,3.03
2019-03-22T00:03:25.873Z,3.10
2019-03-22T00:04:30.386Z,3.30
2019-03-22T00:05:34.887Z,3.60
2019-03-22T00:06:39.521Z,3.50
2019-03-22T00:07:44.038Z,3.60
2019-03-22T00:08:48.498Z,3.40
2019-03-22T00:09:52.978Z,3.13
2019-03-22T00:10:57.496Z,3.53
2019-03-22T00:12:04.217Z,3.60
2019-03-22T00:13:08.228Z,3.77
2019-03-22T00:14:12.691Z,3.20
2019-03-22T00:15:17.162Z,3.50
2019-03-22T00:16:21.647Z,3.30
2019-03-22T00:17:26.205Z,3.85
2019-03-22T00:18:31.129Z,3.70
2019-03-22T00:19:35.771Z,3.80
2019-03-22T00:20:40.258Z,3.35
2019-03-22T00:21:45.027Z,3.30
2019-03-22T00:22:49.490Z,3.57
2019-03-22T00:23:53.968Z,3.40
2019-03-22T00:24:58.451Z,3.27
2019-03-22T00:26:02.933Z,3.40
2019-03-22T00:27:15.972Z,3.63
2019-03-22T00:28:13.949Z,3.60
2019-03-22T00:29:18.460Z,3.80
2019-03-22T00:30:22.927Z,3.43
2019-03-22T00:31:27.451Z,3.40
2019-03-22T00:32:32.285Z,3.63
2019-03-22T00:33:36.802Z,3.60
2019-03-22T00:34:41.618Z,3.63
2019-03-22T00:35:46.104Z,3.23
2019-03-22T00:36:50.605Z,3.37
2019-03-22T00:37:55.158Z,3.50
2019-03-22T00:38:59.649Z,3.60
2019-03-22T00:40:09.115Z,3.25
2019-03-22T00:41:13.591Z,3.40
2019-03-22T00:42:18.116Z,3.42
2019-03-22T00:43:22.654Z,3.70
2019-03-22T00:44:27.143Z,3.17
2019-03-22T00:45:31.622Z,2.90
2019-03-22T00:46:36.188Z,3.40
2019-03-22T00:47:40.646Z,4.23
2019-03-22T00:48:45.138Z,3.37
2019-03-22T00:49:49.633Z,3.60
2019-03-22T00:50:54.119Z,3.50
2019-03-22T00:51:58.599Z,3.30
2019-03-22T00:53:03.051Z,3.63
2019-03-22T00:54:07.533Z,3.65
2019-03-22T00:55:12.015Z,3.37
2019-03-22T00:56:16.499Z,3.12
2019-03-22T00:57:28.462Z,3.83
2019-03-22T00:58:27.148Z,3.30
2019-03-22T00:59:31.642Z,3.90
2019-03-22T01:00:36.158Z,3.67
2019-03-22T01:01:40.614Z,3.60
2019-03-22T01:02:45.253Z,3.70
2019-03-22T01:03:49.839Z,3.17
2019-03-22T01:04:54.435Z,3.58
2019-03-22T01:05:58.920Z,4.00
2019-03-22T01:07:03.464Z,3.47
2019-03-22T01:08:07.959Z,3.37
2019-03-22T01:09:12.444Z,3.40
2019-03-22T01:10:17.101Z,3.40
2019-03-22T01:11:21.612Z,3.52
2019-03-22T01:12:26.085Z,3.50
2019-03-22T01:13:30.558Z,3.33
2019-03-22T01:14:35.032Z,3.40
2019-03-22T01:15:39.498Z,3.67
2019-03-22T01:16:43.997Z,3.17
2019-03-22T01:17:48.572Z,3.70
2019-03-22T01:18:53.099Z,3.80
2019-03-22T01:19:57.611Z,3.75
2019-03-22T01:21:02.110Z,3.85
2019-03-22T01:22:06.613Z,3.90
2019-03-22T01:23:11.133Z,3.90
2019-03-22T01:24:15.590Z,3.57
2019-03-22T01:25:20.195Z,3.47
2019-03-22T01:26:24.700Z,3.80
2019-03-22T01:27:39.610Z,3.87
2019-03-22T01:28:35.541Z,3.40
2019-03-22T01:29:40.009Z,3.60
2019-03-22T01:30:44.495Z,3.73
2019-03-22T01:31:48.989Z,3.83
2019-03-22T01:32:53.603Z,3.97
2019-03-22T01:33:58.108Z,3.40
2019-03-22T01:35:02.931Z,3.67
2019-03-22T01:36:07.587Z,3.87
2019-03-22T01:37:12.152Z,3.60
2019-03-22T01:38:16.607Z,3.85
2019-03-22T01:39:21.156Z,3.95
2019-03-22T01:40:25.645Z,3.50
2019-03-22T01:41:30.311Z,3.40
2019-03-22T01:42:35.420Z,3.77
2019-03-22T01:43:39.955Z,3.83
2019-03-22T01:44:44.463Z,3.47
2019-03-22T01:45:48.932Z,3.43
2019-03-22T01:46:53.382Z,3.20
2019-03-22T01:47:57.856Z,3.63
2019-03-22T01:49:02.388Z,3.47
2019-03-22T01:50:18.394Z,3.43
2019-03-22T01:51:22.864Z,3.70
2019-03-22T01:52:27.341Z,3.40
2019-03-22T01:53:31.794Z,3.52
2019-03-22T01:54:36.254Z,3.30
2019-03-22T01:55:40.749Z,3.40
2019-03-22T01:56:45.214Z,3.42
2019-03-22T01:57:53.373Z,3.52
2019-03-22T01:58:55.923Z,3.35
2019-03-22T02:00:00.436Z,3.27
2019-03-22T02:01:05.047Z,3.75
2019-03-22T02:02:09.876Z,4.23
2019-03-22T02:03:14.425Z,3.47
2019-03-22T02:04:18.901Z,3.27
2019-03-22T02:05:23.368Z,3.40
2019-03-22T02:06:27.895Z,3.80
2019-03-22T02:07:32.424Z,3.37
2019-03-22T02:08:37.084Z,3.50
2019-03-22T02:09:41.579Z,3.60
2019-03-22T02:10:46.061Z,3.50
2019-03-22T02:11:50.534Z,3.30
2019-03-22T02:12:55.022Z,3.57
2019-03-22T02:13:59.494Z,3.27
2019-03-22T02:15:06.754Z,3.37
2019-03-22T02:16:11.314Z,3.53
2019-03-22T02:17:15.798Z,3.55
2019-03-22T02:18:20.293Z,3.60
2019-03-22T02:19:24.785Z,3.47
2019-03-22T02:20:29.339Z,3.47
2019-03-22T02:21:34.786Z,3.20
2019-03-22T02:22:39.285Z,3.58
2019-03-22T02:23:43.757Z,3.53
2019-03-22T02:24:48.220Z,3.40
2019-03-22T02:25:52.700Z,3.90
2019-03-22T02:26:57.283Z,3.37
2019-03-22T02:28:04.417Z,3.50
2019-03-22T02:29:07.951Z,3.23
2019-03-22T02:30:14.888Z,3.27
2019-03-22T02:31:19.677Z,3.20
2019-03-22T02:32:24.158Z,3.30
2019-03-22T02:33:28.711Z,3.65
2019-03-22T02:34:33.241Z,3.67
2019-03-22T02:35:37.719Z,3.33
2019-03-22T02:36:43.105Z,3.05
2019-03-22T02:37:47.574Z,3.40
2019-03-22T02:38:52.041Z,3.30
2019-03-22T02:39:56.566Z,3.25
2019-03-22T02:41:01.022Z,3.20
2019-03-22T02:42:05.571Z,3.27
2019-03-22T02:43:10.030Z,3.27
2019-03-22T02:44:14.487Z,3.22
2019-03-22T02:45:18.987Z,3.42
2019-03-22T02:46:23.520Z,3.22
2019-03-22T02:47:28.068Z,3.00
2019-03-22T02:48:32.614Z,3.80
2019-03-22T02:49:37.069Z,3.65
2019-03-22T02:50:41.564Z,3.13
2019-03-22T02:51:46.013Z,3.55
2019-03-22T02:52:50.530Z,3.60
2019-03-22T02:53:55.004Z,3.17
2019-03-22T02:54:59.473Z,3.35
2019-03-22T02:56:04.079Z,3.30
2019-03-22T02:57:08.567Z,3.27
2019-03-22T02:58:20.286Z,3.05
2019-03-22T02:59:19.480Z,3.05
2019-03-22T03:00:23.974Z,3.17
2019-03-22T03:01:28.655Z,3.17
2019-03-22T03:02:33.322Z,3.52
2019-03-22T03:03:37.826Z,3.50
2019-03-22T03:04:42.307Z,3.08
2019-03-22T03:05:46.778Z,3.60
2019-03-22T03:06:51.263Z,3.70
2019-03-22T03:07:55.756Z,3.13
2019-03-22T03:09:00.478Z,3.37
2019-03-22T03:10:08.358Z,3.43
2019-03-22T03:11:12.819Z,3.43
2019-03-22T03:12:17.309Z,3.22
2019-03-22T03:13:21.834Z,3.50
2019-03-22T03:14:26.316Z,2.97
2019-03-22T03:15:30.780Z,3.47
2019-03-22T03:16:35.247Z,3.40
2019-03-22T03:17:39.730Z,3.27
2019-03-22T03:18:44.221Z,3.50
2019-03-22T03:19:48.749Z,3.35
2019-03-22T03:20:53.216Z,3.60
2019-03-22T03:21:57.680Z,3.77
2019-03-22T03:23:02.206Z,3.45
2019-03-22T03:24:06.735Z,3.45
2019-03-22T03:25:11.544Z,3.10
2019-03-22T03:26:16.017Z,3.63
2019-03-22T03:27:20.488Z,4.10
2019-03-22T03:28:36.055Z,3.55
2019-03-22T03:29:31.339Z,3.27
2019-03-22T03:30:35.959Z,3.40
2019-03-22T03:31:40.433Z,3.03
2019-03-22T03:32:45.195Z,3.03
2019-03-22T03:33:49.747Z,3.50
2019-03-22T03:34:54.228Z,3.50
2019-03-22T03:35:58.693Z,3.23
2019-03-22T03:37:03.253Z,3.27
2019-03-22T03:38:08.385Z,3.10
2019-03-22T03:39:13.516Z,3.37
2019-03-22T03:40:18.125Z,3.67
2019-03-22T03:41:22.641Z,3.50
2019-03-22T03:42:27.412Z,3.47
2019-03-22T03:43:31.880Z,3.27
2019-03-22T03:44:36.647Z,3.20
2019-03-22T03:45:41.179Z,3.23
2019-03-22T03:46:45.658Z,3.23
2019-03-22T03:47:50.133Z,3.35
2019-03-22T03:48:54.606Z,3.30
2019-03-22T03:49:59.075Z,3.23
2019-03-22T03:51:03.523Z,3.25
2019-03-22T03:52:08.004Z,3.47
2019-03-22T03:53:12.547Z,3.53
2019-03-22T03:54:17.047Z,3.57
2019-03-22T03:55:21.494Z,3.30
2019-03-22T03:56:25.978Z,3.23
2019-03-22T03:57:30.821Z,3.50
2019-03-22T03:58:35.339Z,3.00
2019-03-22T03:59:39.851Z,3.30
2019-03-22T04:00:44.320Z,3.20
2019-03-22T04:01:48.860Z,3.02
2019-03-22T04:02:53.683Z,3.17
2019-03-22T04:03:58.213Z,3.55
2019-03-22T04:05:02.685Z,3.33
2019-03-22T04:06:07.213Z,3.30
2019-03-22T04:07:11.758Z,3.17
2019-03-22T04:08:16.279Z,3.77
2019-03-22T04:09:20.798Z,3.35
2019-03-22T04:10:25.368Z,3.17
2019-03-22T04:11:29.901Z,3.60
2019-03-22T04:12:34.450Z,3.45
2019-03-22T04:13:39.011Z,3.20
2019-03-22T04:14:43.510Z,3.47
2019-03-22T04:15:47.965Z,3.30
2019-03-22T04:16:52.492Z,3.67
2019-03-22T04:17:56.960Z,3.20
2019-03-22T04:19:01.453Z,3.13
2019-03-22T04:20:06.903Z,3.40
2019-03-22T04:21:11.380Z,3.42
2019-03-22T04:22:15.858Z,3.52
2019-03-22T04:23:20.313Z,4.08
2019-03-22T04:24:24.791Z,3.80
2019-03-22T04:25:29.344Z,3.50
2019-03-22T04:26:33.805Z,3.40
2019-03-22T04:27:38.275Z,3.57
2019-03-22T04:28:42.939Z,3.37
2019-03-22T04:29:47.410Z,3.37
2019-03-22T04:30:51.883Z,3.80
2019-03-22T04:31:56.455Z,3.30
2019-03-22T04:33:00.907Z,3.62
2019-03-22T04:34:05.777Z,3.60
2019-03-22T04:35:10.938Z,3.30
2019-03-22T04:36:15.490Z,3.07
2019-03-22T04:37:19.995Z,3.57
2019-03-22T04:38:24.486Z,3.20
2019-03-22T04:39:28.974Z,3.12
2019-03-22T04:40:33.443Z,3.50
2019-03-22T04:41:38.010Z,3.37
2019-03-22T04:42:42.488Z,3.42
2019-03-22T04:43:47.030Z,3.45
2019-03-22T04:44:51.498Z,3.35
2019-03-22T04:45:56.640Z,3.45
2019-03-22T04:47:02.105Z,3.63
2019-03-22T04:48:14.977Z,3.60
2019-03-22T04:49:21.306Z,3.63
2019-03-22T04:50:27.613Z,3.70
2019-03-22T04:51:32.510Z,3.43
2019-03-22T04:52:37.769Z,3.30
2019-03-22T04:53:45.295Z,3.67
2019-03-22T04:54:52.833Z,3.30
2019-03-22T04:56:00.459Z,3.17
2019-03-22T04:57:08.398Z,3.85
2019-03-22T04:58:14.203Z,3.53
2019-03-22T04:59:19.768Z,3.20
2019-03-22T05:00:25.100Z,4.20
2019-03-22T05:01:30.534Z,3.73
2019-03-22T05:02:35.582Z,3.67
2019-03-22T05:03:41.378Z,3.27
2019-03-22T05:04:48.352Z,3.30
2019-03-22T05:05:54.167Z,3.92
2019-03-22T05:06:59.589Z,3.40
2019-03-22T05:08:05.021Z,3.30
2019-03-22T05:09:11.928Z,3.47
2019-03-22T05:10:17.395Z,3.52
2019-03-22T05:11:22.907Z,3.60
2019-03-22T05:12:27.960Z,3.33
2019-03-22T05:13:34.941Z,3.40
2019-03-22T05:14:41.562Z,3.53
2019-03-22T05:15:46.727Z,3.35
2019-03-22T05:16:53.794Z,3.27
2019-03-22T05:17:58.419Z,3.40
2019-03-22T05:19:04.242Z,3.43
2019-03-22T05:20:09.981Z,3.20
2019-03-22T05:21:16.378Z,3.20
2019-03-22T05:22:22.999Z,3.33
2019-03-22T05:23:28.792Z,3.30
2019-03-22T05:24:35.718Z,3.58
2019-03-22T05:25:41.220Z,3.40
2019-03-22T05:26:46.828Z,3.30
2019-03-22T05:27:52.239Z,3.23
2019-03-22T05:28:57.750Z,3.37
2019-03-22T05:30:03.829Z,3.47
2019-03-22T05:31:23.373Z,3.60
2019-03-22T05:32:27.885Z,3.23
2019-03-22T05:33:32.823Z,3.53
2019-03-22T05:34:37.301Z,3.35
2019-03-22T05:35:41.783Z,3.60
2019-03-22T05:36:46.269Z,3.62
2019-03-22T05:37:50.754Z,3.77
2019-03-22T05:38:55.278Z,3.60
2019-03-22T05:39:59.810Z,3.50
2019-03-22T05:41:04.303Z,3.10
2019-03-22T05:42:08.932Z,3.40
2019-03-22T05:43:13.443Z,3.20
2019-03-22T05:44:17.991Z,3.02
2019-03-22T05:45:22.456Z,3.62
2019-03-22T05:46:26.974Z,3.60
2019-03-22T05:47:31.444Z,3.50
2019-03-22T05:48:35.930Z,3.63
2019-03-22T05:49:40.396Z,3.57
2019-03-22T05:50:44.915Z,3.53
2019-03-22T05:51:49.493Z,3.53
2019-03-22T05:52:53.949Z,3.65
2019-03-22T05:53:58.711Z,3.50
2019-03-22T05:55:03.617Z,3.30
2019-03-22T05:56:08.086Z,3.43
2019-03-22T05:57:13.850Z,3.33
2019-03-22T05:58:18.625Z,3.40
2019-03-22T05:59:23.133Z,3.57
2019-03-22T06:00:27.665Z,4.30
2019-03-22T06:01:32.171Z,3.70
2019-03-22T06:02:36.730Z,3.47
2019-03-22T06:03:41.218Z,3.65
2019-03-22T06:04:45.700Z,3.92
2019-03-22T06:05:50.175Z,3.60
2019-03-22T06:06:55.297Z,3.60
2019-03-22T06:07:59.765Z,3.80
2019-03-22T06:09:09.364Z,3.77
2019-03-22T06:10:14.274Z,3.87
2019-03-22T06:11:18.738Z,3.30
2019-03-22T06:12:23.205Z,3.42
2019-03-22T06:13:27.652Z,3.70
2019-03-22T06:14:32.172Z,3.57
2019-03-22T06:15:36.658Z,3.65
2019-03-22T06:16:41.201Z,3.50
2019-03-22T06:17:51.604Z,3.57
2019-03-22T06:18:52.043Z,3.40
2019-03-22T06:19:56.574Z,3.70
2019-03-22T06:21:01.106Z,3.75
2019-03-22T06:22:05.598Z,4.17
2019-03-22T06:23:10.125Z,3.75
2019-03-22T06:24:15.069Z,3.75
2019-03-22T06:25:19.621Z,4.60
2019-03-22T06:26:24.184Z,3.60
2019-03-22T06:27:28.665Z,3.90
2019-03-22T06:28:33.123Z,3.73
2019-03-22T06:29:37.603Z,3.90
2019-03-22T06:30:42.196Z,3.80
2019-03-22T06:31:46.758Z,4.10
2019-03-22T06:32:51.498Z,3.80
2019-03-22T06:33:56.472Z,4.00
2019-03-22T06:35:00.921Z,4.10
2019-03-22T06:36:05.486Z,3.60
2019-03-22T06:37:10.012Z,3.83
2019-03-22T06:38:14.510Z,3.77
2019-03-22T06:39:18.967Z,3.83
2019-03-22T06:40:24.129Z,4.23
2019-03-22T06:41:28.825Z,3.98
2019-03-22T06:42:33.306Z,4.22
2019-03-22T06:43:37.787Z,4.25
2019-03-22T06:44:42.266Z,3.92
2019-03-22T06:45:47.019Z,3.70
2019-03-22T06:46:51.484Z,4.17
2019-03-22T06:47:55.978Z,4.20
2019-03-22T06:49:00.464Z,4.03
2019-03-22T06:50:06.961Z,4.33
2019-03-22T06:51:11.458Z,4.00
2019-03-22T06:52:15.938Z,4.37
2019-03-22T06:53:20.426Z,4.20
2019-03-22T06:54:31.575Z,4.08
2019-03-22T06:55:31.050Z,4.30
2019-03-22T06:56:35.675Z,4.17
2019-03-22T06:57:40.140Z,4.43
2019-03-22T06:58:44.610Z,4.40
2019-03-22T06:59:49.098Z,4.70
2019-03-22T07:00:53.566Z,5.05
2019-03-22T07:01:58.096Z,4.67
2019-03-22T07:03:02.572Z,4.67
2019-03-22T07:04:07.062Z,4.65
2019-03-22T07:05:13.637Z,4.87
2019-03-22T07:06:17.701Z,4.70
2019-03-22T07:07:22.172Z,4.73
2019-03-22T07:08:26.640Z,4.33
2019-03-22T07:09:31.192Z,4.83
2019-03-22T07:10:35.830Z,4.63
2019-03-22T07:11:41.823Z,4.65
2019-03-22T07:12:46.458Z,4.80
2019-03-22T07:13:50.961Z,5.33
2019-03-22T07:14:55.447Z,4.87
2019-03-22T07:15:59.918Z,4.67
2019-03-22T07:17:04.380Z,5.17
2019-03-22T07:18:08.839Z,4.80
2019-03-22T07:19:14.330Z,5.53
2019-03-22T07:20:19.190Z,5.72
2019-03-22T07:21:23.730Z,5.10
2019-03-22T07:22:28.276Z,5.22
2019-03-22T07:23:33.021Z,5.08
2019-03-22T07:24:37.488Z,5.05
2019-03-22T07:25:42.044Z,5.60
2019-03-22T07:26:46.503Z,5.73
2019-03-22T07:27:50.993Z,5.28
2019-03-22T07:28:55.519Z,5.15
2019-03-22T07:30:00.181Z,5.35
2019-03-22T07:31:05.139Z,5.00
2019-03-22T07:32:09.634Z,5.42
2019-03-22T07:33:14.165Z,5.50
2019-03-22T07:34:18.642Z,5.33
2019-03-22T07:35:23.120Z,5.45
2019-03-22T07:36:27.730Z,5.23
2019-03-22T07:37:32.210Z,5.43
2019-03-22T07:38:36.875Z,5.40
2019-03-22T07:39:41.366Z,5.40
2019-03-22T07:40:45.892Z,5.17
2019-03-22T07:41:50.395Z,5.60
2019-03-22T07:42:54.862Z,5.55
2019-03-22T07:43:59.322Z,5.67
2019-03-22T07:45:05.972Z,5.33
2019-03-22T07:46:10.470Z,4.90
2019-03-22T07:47:15.011Z,5.17
2019-03-22T07:48:19.470Z,5.35
2019-03-22T07:49:24.319Z,5.00
2019-03-22T07:50:28.839Z,5.37
2019-03-22T07:51:33.398Z,4.70
2019-03-22T07:52:37.874Z,5.03
2019-03-22T07:53:42.381Z,4.90
2019-03-22T07:54:46.884Z,4.80
2019-03-22T07:55:51.363Z,4.83
2019-03-22T07:56:55.864Z,4.90
2019-03-22T07:58:00.327Z,4.47
2019-03-22T07:59:04.966Z,5.13
2019-03-22T08:00:11.571Z,4.57
2019-03-22T08:01:16.253Z,4.83
2019-03-22T08:02:20.835Z,4.67
2019-03-22T08:03:25.305Z,4.67
2019-03-22T08:04:29.840Z,5.20
2019-03-22T08:05:34.316Z,5.00
2019-03-22T08:06:38.881Z,4.67
2019-03-22T08:07:43.379Z,5.08
2019-03-22T08:08:47.956Z,4.97
2019-03-22T08:09:52.473Z,5.07
2019-03-22T08:10:56.970Z,4.80
2019-03-22T08:12:01.949Z,4.53
2019-03-22T08:13:06.780Z,4.90
2019-03-22T08:14:11.462Z,4.70
2019-03-22T08:15:19.086Z,4.43
2019-03-22T08:16:23.571Z,4.92
2019-03-22T08:17:28.084Z,4.83
2019-03-22T08:18:32.658Z,4.77
2019-03-22T08:19:37.246Z,4.50
2019-03-22T08:20:42.248Z,4.63
2019-03-22T08:21:46.773Z,4.72
2019-03-22T08:22:51.314Z,7.35
2019-03-22T08:23:55.796Z,7.33
2019-03-22T08:25:00.578Z,8.03
2019-03-22T08:26:05.131Z,5.92
2019-03-22T08:27:09.628Z,4.85
2019-03-22T08:28:14.132Z,4.72
2019-03-22T08:29:18.683Z,4.42
2019-03-22T08:30:23.243Z,4.67
2019-03-22T08:31:27.702Z,4.70
2019-03-22T08:32:32.207Z,4.60
2019-03-22T08:33:36.749Z,4.60
2019-03-22T08:34:41.308Z,4.67
2019-03-22T08:35:46.050Z,4.30
2019-03-22T08:36:50.616Z,4.80
2019-03-22T08:37:55.226Z,4.60
2019-03-22T08:38:59.864Z,4.77
2019-03-22T08:40:06.602Z,4.10
2019-03-22T08:41:11.069Z,4.27
2019-03-22T08:42:15.898Z,4.60
2019-03-22T08:43:20.417Z,4.90
2019-03-22T08:44:25.169Z,4.25
2019-03-22T08:45:29.738Z,4.03
2019-03-22T08:46:34.212Z,4.40
2019-03-22T08:47:38.769Z,4.47
2019-03-22T08:48:43.248Z,4.35
2019-03-22T08:49:47.962Z,4.35
2019-03-22T08:50:52.600Z,4.10
2019-03-22T08:51:57.104Z,4.33
2019-03-22T08:53:01.651Z,4.45
2019-03-22T08:54:06.228Z,4.63
2019-03-22T08:55:10.949Z,4.50
2019-03-22T08:56:15.488Z,4.40
2019-03-22T08:57:19.986Z,4.20
2019-03-22T08:58:24.477Z,4.43
2019-03-22T08:59:28.983Z,3.90
2019-03-22T09:00:39.221Z,4.03
2019-03-22T09:01:39.872Z,4.07
2019-03-22T09:02:44.697Z,4.45
2019-03-22T09:03:49.223Z,4.33
2019-03-22T09:04:53.777Z,3.70
2019-03-22T09:05:58.328Z,4.22
2019-03-22T09:07:02.894Z,3.67
2019-03-22T09:08:07.448Z,4.08
2019-03-22T09:09:12.072Z,5.17
2019-03-22T09:10:16.550Z,4.10
2019-03-22T09:11:21.035Z,4.30
2019-03-22T09:12:26.939Z,3.77
2019-03-22T09:13:31.588Z,4.27
2019-03-22T09:14:36.077Z,4.58
2019-03-22T09:15:41.613Z,4.13
2019-03-22T09:16:46.671Z,3.97
2019-03-22T09:17:51.230Z,3.90
2019-03-22T09:18:55.862Z,3.70
2019-03-22T09:20:00.451Z,3.97
2019-03-22T09:21:04.929Z,3.93
2019-03-22T09:22:09.450Z,3.70
2019-03-22T09:23:13.990Z,3.30
2019-03-22T09:24:19.136Z,3.47
2019-03-22T09:25:23.925Z,3.80
2019-03-22T09:26:28.459Z,3.60
2019-03-22T09:27:32.955Z,3.50
2019-03-22T09:28:37.568Z,3.70
2019-03-22T09:29:42.128Z,3.40
2019-03-22T09:30:46.906Z,3.60
2019-03-22T09:31:53.652Z,3.57
2019-03-22T09:32:57.826Z,3.67
2019-03-22T09:34:02.392Z,3.70
2019-03-22T09:35:08.517Z,3.87
2019-03-22T09:36:13.086Z,3.77
2019-03-22T09:37:17.546Z,3.60
2019-03-22T09:38:22.016Z,3.70
2019-03-22T09:39:26.570Z,3.87
2019-03-22T09:40:31.224Z,3.73
2019-03-22T09:41:36.084Z,3.40
2019-03-22T09:42:40.858Z,3.83
2019-03-22T09:43:45.611Z,3.30
2019-03-22T09:44:50.072Z,3.50
2019-03-22T09:45:54.706Z,3.63
2019-03-22T09:46:59.473Z,3.60
2019-03-22T09:48:06.147Z,3.63
2019-03-22T09:49:10.715Z,3.70
2019-03-22T09:50:15.593Z,3.70
2019-03-22T09:51:20.097Z,3.67
2019-03-22T09:52:24.574Z,3.30
2019-03-22T09:53:30.504Z,3.53
2019-03-22T09:54:35.358Z,3.43
2019-03-22T09:55:40.049Z,3.53
2019-03-22T09:56:47.310Z,3.30
2019-03-22T09:57:51.078Z,3.53
2019-03-22T09:58:55.572Z,3.67
2019-03-22T10:00:00.363Z,3.80
2019-03-22T10:01:05.289Z,4.03
2019-03-22T10:02:09.832Z,3.43
2019-03-22T10:03:14.345Z,3.73
2019-03-22T10:04:18.856Z,3.50
2019-03-22T10:05:23.348Z,3.70
2019-03-22T10:06:27.938Z,3.67
2019-03-22T10:07:32.610Z,3.33
2019-03-22T10:08:37.152Z,3.57
2019-03-22T10:09:41.681Z,3.30
2019-03-22T10:10:46.162Z,3.63
2019-03-22T10:11:50.651Z,3.33
2019-03-22T10:12:55.217Z,3.70
2019-03-22T10:13:59.776Z,3.40
2019-03-22T10:15:06.282Z,3.90
2019-03-22T10:16:10.970Z,4.00
2019-03-22T10:17:15.599Z,3.73
2019-03-22T10:18:20.178Z,4.10
2019-03-22T10:19:24.684Z,4.20
2019-03-22T10:20:29.224Z,4.30
2019-03-22T10:21:33.788Z,3.90
2019-03-22T10:22:38.251Z,4.00
2019-03-22T10:23:42.750Z,3.70
2019-03-22T10:24:47.415Z,3.87
2019-03-22T10:25:51.972Z,3.30
2019-03-22T10:26:56.484Z,4.47
2019-03-22T10:28:01.035Z,5.40
2019-03-22T10:29:06.922Z,4.27
2019-03-22T10:30:14.450Z,4.77
2019-03-22T10:31:18.995Z,4.33
2019-03-22T10:32:23.964Z,3.67
2019-03-22T10:33:28.797Z,3.83
2019-03-22T10:34:33.275Z,4.10
2019-03-22T10:35:37.858Z,4.17
2019-03-22T10:36:42.349Z,3.90
2019-03-22T10:37:46.821Z,3.40
2019-03-22T10:38:51.376Z,4.10
2019-03-22T10:39:55.857Z,3.63
2019-03-22T10:41:00.340Z,3.80
2019-03-22T10:42:04.860Z,4.57
2019-03-22T10:43:09.407Z,3.60
2019-03-22T10:44:13.962Z,3.80
2019-03-22T10:45:18.479Z,4.17
2019-03-22T10:46:22.985Z,4.00
2019-03-22T10:47:27.522Z,3.53
2019-03-22T10:48:32.118Z,3.57
2019-03-22T10:49:36.676Z,3.60
2019-03-22T10:50:41.189Z,4.00
2019-03-22T10:51:56.002Z,3.90
2019-03-22T10:52:51.874Z,3.80
2019-03-22T10:53:56.327Z,3.43
2019-03-22T10:55:17.143Z,3.77
2019-03-22T10:56:07.023Z,4.17
2019-03-22T10:57:11.489Z,3.60
2019-03-22T10:58:21.222Z,3.67
2019-03-22T10:59:22.213Z,3.63
2019-03-22T11:00:26.760Z,3.67
2019-03-22T11:01:31.228Z,3.60
2019-03-22T11:02:35.373Z,3.47
2019-03-22T11:03:39.901Z,3.77
2019-03-22T11:04:44.694Z,3.90
2019-03-22T11:05:49.250Z,3.90
2019-03-22T11:06:53.708Z,3.57
2019-03-22T11:07:58.188Z,3.33
2019-03-22T11:09:02.668Z,3.47
2019-03-22T11:10:11.185Z,3.63
2019-03-22T11:11:16.268Z,3.80
2019-03-22T11:12:20.731Z,3.63
2019-03-22T11:13:25.194Z,4.17
2019-03-22T11:14:29.681Z,3.87
2019-03-22T11:15:34.138Z,4.07
2019-03-22T11:16:38.663Z,4.07
2019-03-22T11:17:43.147Z,3.93
2019-03-22T11:18:47.620Z,3.93
2019-03-22T11:19:52.080Z,3.70
2019-03-22T11:21:04.804Z,3.77
2019-03-22T11:22:02.737Z,3.90
2019-03-22T11:23:07.218Z,3.80
2019-03-22T11:24:11.689Z,3.60
2019-03-22T11:25:16.251Z,3.70
2019-03-22T11:26:20.732Z,4.07
2019-03-22T11:27:25.256Z,3.77
2019-03-22T11:28:29.744Z,4.27
2019-03-22T11:29:34.320Z,4.20
2019-03-22T11:30:38.805Z,4.07
2019-03-22T11:31:43.289Z,4.37
2019-03-22T11:32:47.861Z,4.83
2019-03-22T11:33:52.347Z,4.30
2019-03-22T11:34:56.836Z,4.37
2019-03-22T11:36:01.316Z,4.20
2019-03-22T11:37:07.751Z,4.07
2019-03-22T11:38:12.088Z,4.27
2019-03-22T11:39:16.766Z,4.13
2019-03-22T11:40:21.324Z,4.13
2019-03-22T11:41:25.800Z,4.27
2019-03-22T11:42:30.327Z,4.43
2019-03-22T11:43:34.808Z,4.33
2019-03-22T11:44:39.293Z,4.60
2019-03-22T11:45:43.866Z,4.80
2019-03-22T11:46:48.474Z,4.70
2019-03-22T11:47:53.137Z,4.70
2019-03-22T11:48:57.646Z,4.47
2019-03-22T11:50:02.461Z,5.00
2019-03-22T11:51:06.659Z,4.67
2019-03-22T11:52:11.022Z,4.37
2019-03-22T11:53:15.742Z,4.53
2019-03-22T11:54:20.239Z,4.30
2019-03-22T11:55:24.694Z,4.10
2019-03-22T11:56:29.187Z,4.60
2019-03-22T11:57:33.690Z,4.97
2019-03-22T11:58:38.292Z,4.67
2019-03-22T11:59:42.790Z,4.80
2019-03-22T12:00:47.278Z,4.83
2019-03-22T12:01:51.825Z,4.90
2019-03-22T12:02:56.373Z,5.67
2019-03-22T12:04:00.864Z,4.63
2019-03-22T12:05:07.893Z,4.87
2019-03-22T12:06:12.383Z,4.53
2019-03-22T12:07:17.001Z,4.97
2019-03-22T12:08:21.466Z,4.90
2019-03-22T12:09:25.940Z,5.00
2019-03-22T12:10:30.419Z,5.30
2019-03-22T12:11:34.929Z,4.33
2019-03-22T12:12:39.343Z,4.87
2019-03-22T12:13:43.350Z,4.53
2019-03-22T12:14:48.132Z,4.73
2019-03-22T12:15:52.670Z,4.83
2019-03-22T12:16:57.185Z,5.27
2019-03-22T12:18:01.714Z,5.63
2019-03-22T12:19:06.279Z,5.90
2019-03-22T12:20:16.862Z,7.83
2019-03-22T12:21:21.320Z,7.07
2019-03-22T12:22:25.899Z,6.27
2019-03-22T12:23:30.775Z,5.63
2019-03-22T12:24:34.917Z,5.37
2019-03-22T12:25:39.417Z,5.20
2019-03-22T12:26:43.905Z,5.87
2019-03-22T12:27:48.538Z,6.20
2019-03-22T12:28:53.136Z,6.63
2019-03-22T12:29:57.733Z,5.53
2019-03-22T12:31:02.224Z,6.57
2019-03-22T12:32:06.703Z,5.10
2019-03-22T12:33:11.176Z,4.70
2019-03-22T12:34:15.665Z,5.07
2019-03-22T12:35:20.286Z,4.70
2019-03-22T12:36:24.830Z,5.00
2019-03-22T12:37:29.324Z,4.93
2019-03-22T12:38:33.800Z,4.60
2019-03-22T12:39:38.277Z,4.93
2019-03-22T12:40:42.987Z,4.87
2019-03-22T12:41:47.700Z,5.17
2019-03-22T12:42:52.263Z,5.10
2019-03-22T12:43:56.967Z,4.43
2019-03-22T12:45:01.572Z,4.90
2019-03-22T12:46:07.938Z,4.20
2019-03-22T12:47:12.605Z,4.80
2019-03-22T12:48:17.248Z,4.67
2019-03-22T12:49:21.852Z,4.70
2019-03-22T12:50:26.610Z,5.20
2019-03-22T12:51:31.114Z,5.20
2019-03-22T12:52:35.574Z,4.47
2019-03-22T12:53:40.080Z,4.40
2019-03-22T12:54:44.549Z,4.73
2019-03-22T12:55:49.168Z,4.50
2019-03-22T12:56:53.650Z,4.63
2019-03-22T12:57:59.524Z,4.83
2019-03-22T12:59:04.223Z,4.67
2019-03-22T13:00:14.581Z,4.60
2019-03-22T13:01:19.050Z,4.13
2019-03-22T13:02:23.592Z,4.83
2019-03-22T13:03:28.103Z,5.23
2019-03-22T13:04:32.605Z,5.17
2019-03-22T13:05:37.068Z,5.10
2019-03-22T13:06:41.627Z,4.60
2019-03-22T13:07:46.104Z,5.30
2019-03-22T13:08:50.637Z,4.70
2019-03-22T13:09:55.128Z,5.27
2019-03-22T13:10:59.679Z,4.73
2019-03-22T13:12:06.269Z,4.30
2019-03-22T13:13:10.382Z,4.97
2019-03-22T13:14:14.838Z,4.60
2019-03-22T13:15:19.397Z,5.30
2019-03-22T13:16:23.862Z,5.00
2019-03-22T13:17:28.366Z,5.47
2019-03-22T13:18:33.258Z,5.90
2019-03-22T13:19:37.815Z,6.27
2019-03-22T13:20:42.300Z,6.37
2019-03-22T13:21:46.770Z,5.60
2019-03-22T13:22:51.243Z,5.33
2019-03-22T13:23:55.732Z,4.97
2019-03-22T13:25:00.327Z,4.70
2019-03-22T13:26:04.927Z,5.10
2019-03-22T13:27:09.378Z,4.70
2019-03-22T13:28:13.843Z,5.07
2019-03-22T13:29:18.337Z,4.57
2019-03-22T13:30:33.513Z,5.20
2019-03-22T13:31:38.033Z,4.70
2019-03-22T13:32:51.829Z,4.30
2019-03-22T13:33:48.705Z,4.83
2019-03-22T13:34:53.408Z,4.60
2019-03-22T13:35:59.605Z,4.90
2019-03-22T13:37:04.089Z,4.30
2019-03-22T13:38:08.550Z,4.53
2019-03-22T13:39:13.057Z,4.80
2019-03-22T13:40:17.545Z,4.43
2019-03-22T13:41:22.044Z,4.20
2019-03-22T13:42:26.522Z,4.30
2019-03-22T13:43:30.991Z,4.80
2019-03-22T13:44:35.471Z,4.53
2019-03-22T13:45:40.022Z,4.80
2019-03-22T13:46:44.544Z,4.40
2019-03-22T13:47:49.020Z,4.77
2019-03-22T13:48:53.628Z,4.90
2019-03-22T13:49:58.096Z,4.97
2019-03-22T13:51:02.559Z,4.67
2019-03-22T13:52:07.060Z,4.80
2019-03-22T13:53:11.550Z,4.90
2019-03-22T13:54:16.020Z,4.50
2019-03-22T13:55:20.587Z,4.77
2019-03-22T13:56:25.061Z,4.50
2019-03-22T13:57:29.546Z,4.47
2019-03-22T13:58:34.028Z,4.53
2019-03-22T13:59:38.532Z,4.17
2019-03-22T14:00:42.986Z,4.07
2019-03-22T14:01:47.482Z,3.80
2019-03-22T14:03:02.068Z,4.30
2019-03-22T14:03:58.125Z,4.13
2019-03-22T14:05:02.773Z,4.27
2019-03-22T14:06:07.298Z,4.37
2019-03-22T14:07:11.938Z,4.20
2019-03-22T14:08:16.394Z,4.03
2019-03-22T14:09:20.863Z,4.00
2019-03-22T14:10:33.132Z,4.27
2019-03-22T14:11:37.598Z,4.30
2019-03-22T14:12:42.086Z,4.53
2019-03-22T14:13:46.561Z,4.30
2019-03-22T14:14:51.029Z,4.53
2019-03-22T14:15:55.523Z,3.83
2019-03-22T14:16:59.999Z,4.53
2019-03-22T14:18:04.836Z,4.70
2019-03-22T14:19:09.314Z,4.10
2019-03-22T14:20:13.877Z,4.13
2019-03-22T14:21:18.349Z,4.27
2019-03-22T14:22:22.826Z,4.40